createdAt,value
2022-08-19T00:00:45.096Z,18.11
2022-08-19T00:03:11.654Z,18.08
2022-08-19T00:05:38.202Z,18.14
2022-08-19T00:08:04.908Z,18.15
2022-08-19T00:10:31.554Z,18.12
2022-08-19T00:12:58.087Z,18.18
2022-08-19T00:15:24.593Z,18.05
2022-08-19T00:17:51.956Z,17.99
2022-08-19T00:20:21.808Z,18.02
2022-08-19T00:22:48.463Z,18.18
2022-08-19T00:25:15.828Z,18.14
2022-08-19T00:27:42.338Z,18.07
2022-08-19T00:30:09.461Z,18.13
2022-08-19T00:32:36.010Z,18.23
2022-08-19T00:35:02.561Z,18.19
2022-08-19T00:37:29.445Z,18.25
2022-08-19T00:39:56.033Z,18.12
2022-08-19T00:42:22.913Z,18.14
2022-08-19T00:44:49.615Z,18.22
2022-08-19T00:47:16.241Z,18.18
2022-08-19T00:49:48.303Z,18.28
2022-08-19T00:52:16.746Z,18.25
2022-08-19T00:54:44.549Z,18.30
2022-08-19T00:57:13.339Z,18.22
2022-08-19T00:59:58.860Z,18.16
2022-08-19T01:02:28.246Z,17.98
2022-08-19T01:04:55.284Z,17.97
2022-08-19T01:07:21.884Z,17.88
2022-08-19T01:09:50.568Z,17.77
2022-08-19T01:12:17.847Z,17.73
2022-08-19T01:14:44.467Z,17.83
2022-08-19T01:17:12.515Z,17.75
2022-08-19T01:19:44.073Z,17.75
2022-08-19T01:22:38.982Z,17.73
2022-08-19T01:25:09.521Z,17.80
2022-08-19T01:27:44.048Z,17.90
2022-08-19T01:30:17.079Z,17.93
2022-08-19T01:32:43.721Z,17.88
2022-08-19T01:35:10.623Z,17.81
2022-08-19T01:37:49.779Z,17.91
2022-08-19T01:40:17.564Z,17.92
2022-08-19T01:42:44.090Z,18.14
2022-08-19T01:45:11.151Z,18.10
2022-08-19T01:47:37.913Z,18.20
2022-08-19T01:50:07.264Z,18.18
2022-08-19T01:52:36.329Z,18.23
2022-08-19T01:55:02.930Z,18.34
2022-08-19T01:57:29.597Z,18.32
2022-08-19T01:59:56.186Z,18.40
2022-08-19T02:02:22.684Z,18.40
2022-08-19T02:04:49.164Z,18.47
2022-08-19T02:07:15.692Z,18.46
2022-08-19T02:09:42.192Z,18.56
2022-08-19T02:12:08.793Z,18.52
2022-08-19T02:14:37.173Z,18.68
2022-08-19T02:17:04.552Z,18.68
2022-08-19T02:19:31.044Z,18.84
2022-08-19T02:21:57.554Z,18.88
2022-08-19T02:24:24.099Z,18.94
2022-08-19T02:26:50.588Z,18.84
2022-08-19T02:29:17.108Z,18.92
2022-08-19T02:31:43.644Z,18.83
2022-08-19T02:34:10.185Z,18.63
2022-08-19T02:36:36.859Z,18.39
2022-08-19T02:39:09.555Z,18.24
2022-08-19T02:41:36.144Z,18.16
2022-08-19T02:44:26.745Z,18.12
2022-08-19T02:46:50.564Z,18.25
2022-08-19T02:49:18.918Z,18.32
2022-08-19T02:51:46.951Z,18.34
2022-08-19T02:54:14.126Z,18.40
2022-08-19T02:56:42.372Z,18.35
2022-08-19T02:59:08.874Z,18.39
2022-08-19T03:01:37.055Z,18.49
2022-08-19T03:04:06.420Z,18.61
2022-08-19T03:06:33.339Z,18.67
2022-08-19T03:08:59.816Z,18.83
2022-08-19T03:11:29.778Z,18.78
2022-08-19T03:13:56.404Z,18.68
2022-08-19T03:16:27.967Z,18.59
2022-08-19T03:18:56.743Z,18.54
2022-08-19T03:21:25.639Z,18.57
2022-08-19T03:23:55.549Z,18.58
2022-08-19T03:26:22.073Z,18.64
2022-08-19T03:28:51.104Z,18.67
2022-08-19T03:31:43.319Z,18.54
2022-08-19T03:34:08.595Z,18.60
2022-08-19T03:36:35.079Z,18.61
2022-08-19T03:39:01.986Z,18.39
2022-08-19T03:41:34.270Z,18.42
2022-08-19T03:44:12.678Z,18.37
2022-08-19T03:46:44.965Z,18.35
2022-08-19T03:49:11.623Z,18.40
2022-08-19T03:51:41.916Z,18.44
2022-08-19T03:54:11.536Z,18.49
2022-08-19T03:56:40.016Z,18.46
2022-08-19T03:59:09.598Z,18.61
2022-08-19T04:01:36.476Z,18.60
2022-08-19T04:04:04.837Z,18.49
2022-08-19T04:06:39.422Z,18.53
2022-08-19T04:09:09.947Z,18.60
2022-08-19T04:11:48.756Z,18.52
2022-08-19T04:14:35.720Z,18.54
2022-08-19T04:17:03.157Z,18.52
2022-08-19T04:19:31.300Z,18.62
2022-08-19T04:21:58.160Z,18.76
2022-08-19T04:24:24.910Z,18.51
2022-08-19T04:26:53.029Z,18.67
2022-08-19T04:29:25.052Z,18.44
2022-08-19T04:31:52.916Z,18.34
2022-08-19T04:34:21.394Z,18.47
2022-08-19T04:36:47.874Z,18.53
2022-08-19T04:39:17.078Z,18.67
2022-08-19T04:41:44.547Z,18.70
2022-08-19T04:44:12.883Z,18.75
2022-08-19T04:46:50.818Z,18.63
2022-08-19T04:49:20.147Z,18.77
2022-08-19T04:51:47.620Z,18.64
2022-08-19T04:54:15.060Z,18.50
2022-08-19T04:56:53.982Z,18.49
2022-08-19T04:59:21.491Z,18.40
2022-08-19T05:01:48.594Z,18.39
2022-08-19T05:04:21.380Z,18.46
2022-08-19T05:06:49.325Z,18.40
2022-08-19T05:09:16.789Z,18.52
2022-08-19T05:11:44.020Z,18.40
2022-08-19T05:14:11.092Z,18.55
2022-08-19T05:16:38.735Z,18.67
2022-08-19T05:19:05.202Z,18.75
2022-08-19T05:21:32.334Z,18.64
2022-08-19T05:23:59.091Z,18.57
2022-08-19T05:26:27.018Z,18.63
2022-08-19T05:28:54.800Z,18.64
2022-08-19T05:31:21.949Z,18.70
2022-08-19T05:33:48.543Z,18.65
2022-08-19T05:36:15.079Z,18.64
2022-08-19T05:38:41.574Z,18.57
2022-08-19T05:41:12.434Z,18.72
2022-08-19T05:43:41.364Z,18.81
2022-08-19T05:46:08.380Z,18.60
2022-08-19T05:48:35.790Z,18.69
2022-08-19T05:51:06.710Z,18.46
2022-08-19T05:53:36.848Z,18.55
2022-08-19T05:56:08.669Z,18.51
2022-08-19T05:58:36.963Z,18.41
2022-08-19T06:01:05.109Z,18.64
2022-08-19T06:03:35.084Z,18.56
2022-08-19T06:06:01.629Z,18.38
2022-08-19T06:08:34.321Z,18.44
2022-08-19T06:11:24.681Z,18.38
2022-08-19T06:13:59.503Z,18.39
2022-08-19T06:16:27.394Z,18.46
2022-08-19T06:18:54.216Z,18.45
2022-08-19T06:21:24.745Z,18.52
2022-08-19T06:23:52.418Z,18.44
2022-08-19T06:26:20.177Z,18.49
2022-08-19T06:28:48.280Z,18.43
2022-08-19T06:31:27.021Z,18.43
2022-08-19T06:33:53.965Z,18.50
2022-08-19T06:36:27.205Z,18.62
2022-08-19T06:38:56.812Z,18.41
2022-08-19T06:41:23.358Z,18.54
2022-08-19T06:43:49.860Z,18.63
2022-08-19T06:46:21.151Z,18.56
2022-08-19T06:48:48.198Z,18.71
2022-08-19T06:51:16.168Z,18.68
2022-08-19T06:53:47.544Z,18.76
2022-08-19T06:56:19.813Z,18.95
2022-08-19T06:58:46.331Z,18.92
2022-08-19T07:01:13.014Z,19.05
2022-08-19T07:03:39.956Z,18.87
2022-08-19T07:06:43.373Z,18.93
2022-08-19T07:09:08.291Z,19.03
2022-08-19T07:11:35.543Z,19.12
2022-08-19T07:14:02.696Z,19.18
2022-08-19T07:16:30.461Z,19.14
2022-08-19T07:18:57.172Z,19.21
2022-08-19T07:21:27.042Z,19.12
2022-08-19T07:23:57.629Z,19.18
2022-08-19T07:26:30.817Z,19.32
2022-08-19T07:28:59.252Z,19.22
2022-08-19T07:31:27.333Z,19.24
2022-08-19T07:33:57.847Z,19.20
2022-08-19T07:36:27.296Z,19.35
2022-08-19T07:38:53.885Z,19.42
2022-08-19T07:41:23.444Z,19.50
2022-08-19T07:43:50.574Z,19.60
2022-08-19T07:46:17.549Z,19.43
2022-08-19T07:48:45.215Z,19.46
2022-08-19T07:51:12.327Z,19.72
2022-08-19T07:53:41.170Z,19.76
2022-08-19T07:56:08.024Z,19.97
2022-08-19T07:58:40.216Z,19.97
2022-08-19T08:01:09.182Z,20.21
2022-08-19T08:03:37.810Z,20.26
2022-08-19T08:06:04.402Z,20.34
2022-08-19T08:08:33.509Z,20.56
2022-08-19T08:11:01.026Z,20.60
2022-08-19T08:13:29.078Z,20.51
2022-08-19T08:15:56.958Z,20.47
2022-08-19T08:18:28.146Z,20.52
2022-08-19T08:20:57.743Z,20.32
2022-08-19T08:23:24.971Z,20.29
2022-08-19T08:25:53.111Z,20.25
2022-08-19T08:28:19.950Z,20.19
2022-08-19T08:30:47.893Z,20.25
2022-08-19T08:33:17.908Z,20.11
2022-08-19T08:35:59.785Z,20.01
2022-08-19T08:38:26.708Z,20.30
2022-08-19T08:41:01.090Z,20.48
2022-08-19T08:43:34.897Z,20.48
2022-08-19T08:46:04.436Z,20.41
2022-08-19T08:48:37.445Z,20.31
2022-08-19T08:51:09.303Z,20.53
2022-08-19T08:53:40.464Z,20.54
2022-08-19T08:56:10.247Z,20.60
2022-08-19T08:59:19.375Z,20.65
2022-08-19T09:01:45.883Z,20.90
2022-08-19T09:04:13.484Z,21.14
2022-08-19T09:06:49.721Z,21.44
2022-08-19T09:09:32.134Z,21.69
2022-08-19T09:12:14.821Z,21.89
2022-08-19T09:14:54.874Z,21.85
2022-08-19T09:17:24.531Z,21.56
2022-08-19T09:19:54.553Z,21.67
2022-08-19T09:22:25.962Z,21.82
2022-08-19T09:24:54.112Z,21.95
2022-08-19T09:27:21.956Z,22.15
2022-08-19T09:30:10.591Z,22.20
2022-08-19T09:32:37.763Z,22.10
2022-08-19T09:35:08.860Z,22.05
2022-08-19T09:37:37.022Z,21.86
2022-08-19T09:40:04.721Z,21.65
2022-08-19T09:42:35.507Z,21.42
2022-08-19T09:45:05.318Z,21.17
2022-08-19T09:47:37.711Z,21.05
2022-08-19T09:50:09.368Z,20.76
2022-08-19T09:52:38.307Z,21.02
2022-08-19T09:55:09.845Z,21.14
2022-08-19T09:57:36.768Z,21.21
2022-08-19T10:00:05.808Z,21.23
2022-08-19T10:02:32.370Z,21.27
2022-08-19T10:05:00.970Z,21.46
2022-08-19T10:07:36.084Z,21.95
2022-08-19T10:10:06.635Z,22.07
2022-08-19T10:12:35.469Z,22.24
2022-08-19T10:15:02.891Z,22.34
2022-08-19T10:17:31.620Z,22.43
2022-08-19T10:20:00.824Z,22.52
2022-08-19T10:22:27.516Z,22.54
2022-08-19T10:24:54.470Z,22.47
2022-08-19T10:27:21.220Z,22.49
2022-08-19T10:29:47.887Z,22.81
2022-08-19T10:32:14.538Z,22.99
2022-08-19T10:34:48.303Z,23.18
2022-08-19T10:37:22.839Z,23.10
2022-08-19T10:39:56.040Z,23.03
2022-08-19T10:42:22.723Z,23.03
2022-08-19T10:44:49.228Z,22.93
2022-08-19T10:47:25.420Z,23.05
2022-08-19T10:49:53.996Z,23.55
2022-08-19T10:52:32.300Z,24.15
2022-08-19T10:54:59.194Z,24.55
2022-08-19T10:57:52.336Z,24.85
2022-08-19T11:00:20.840Z,25.09
2022-08-19T11:02:48.209Z,24.97
2022-08-19T11:05:15.385Z,24.65
2022-08-19T11:07:42.961Z,24.72
2022-08-19T11:10:17.137Z,24.59
2022-08-19T11:12:46.240Z,24.43
2022-08-19T11:15:12.957Z,24.49
2022-08-19T11:17:39.946Z,24.17
2022-08-19T11:20:09.338Z,24.08
2022-08-19T11:22:40.935Z,23.69
2022-08-19T11:25:11.169Z,23.73
2022-08-19T11:27:41.730Z,23.66
2022-08-19T11:30:12.768Z,23.49
2022-08-19T11:32:43.565Z,23.43
2022-08-19T11:35:13.810Z,23.85
2022-08-19T11:37:40.311Z,24.40
2022-08-19T11:40:07.684Z,24.65
2022-08-19T11:42:36.496Z,25.08
2022-08-19T11:45:04.398Z,25.06
2022-08-19T11:47:31.445Z,25.22
2022-08-19T11:50:01.041Z,25.45
2022-08-19T11:52:27.956Z,25.60
2022-08-19T11:54:55.348Z,25.78
2022-08-19T11:57:22.034Z,25.67
2022-08-19T11:59:53.210Z,25.54
2022-08-19T12:02:20.364Z,25.03
2022-08-19T12:04:46.855Z,24.50
2022-08-19T12:07:13.721Z,24.38
2022-08-19T12:09:42.869Z,24.41
2022-08-19T12:12:10.176Z,24.53
2022-08-19T12:14:36.833Z,24.71
2022-08-19T12:17:03.542Z,24.44
2022-08-19T12:19:30.052Z,24.49
2022-08-19T12:22:00.240Z,24.62
2022-08-19T12:24:26.737Z,24.53
2022-08-19T12:26:54.022Z,24.41
2022-08-19T12:29:23.836Z,24.47
2022-08-19T12:31:51.565Z,24.73
2022-08-19T12:34:18.089Z,24.66
2022-08-19T12:36:47.450Z,24.74
2022-08-19T12:39:13.943Z,24.87
2022-08-19T12:41:47.556Z,24.91
2022-08-19T12:44:21.014Z,25.11
2022-08-19T12:46:56.824Z,25.42
2022-08-19T12:49:53.387Z,25.37
2022-08-19T12:52:11.411Z,25.52
2022-08-19T12:54:40.789Z,25.69
2022-08-19T12:57:08.614Z,25.73
2022-08-19T12:59:36.476Z,26.06
2022-08-19T13:02:04.624Z,25.82
2022-08-19T13:04:31.134Z,25.74
2022-08-19T13:06:58.107Z,25.89
2022-08-19T13:09:24.888Z,25.59
2022-08-19T13:11:51.806Z,25.32
2022-08-19T13:14:18.557Z,25.03
2022-08-19T13:16:45.479Z,25.01
2022-08-19T13:19:11.976Z,24.80
2022-08-19T13:21:38.541Z,24.76
2022-08-19T13:24:05.226Z,24.83
2022-08-19T13:26:31.730Z,24.85
2022-08-19T13:28:58.376Z,24.96
2022-08-19T13:31:27.355Z,25.09
2022-08-19T13:33:53.936Z,25.48
2022-08-19T13:36:20.754Z,25.52
2022-08-19T13:38:49.540Z,25.54
2022-08-19T13:41:16.126Z,25.60
2022-08-19T13:43:42.680Z,25.80
2022-08-19T13:46:11.515Z,25.81
2022-08-19T13:48:38.185Z,25.49
2022-08-19T13:51:06.405Z,25.16
2022-08-19T13:53:33.355Z,24.76
2022-08-19T13:55:59.956Z,24.62
2022-08-19T13:58:26.475Z,24.68
2022-08-19T14:00:53.123Z,24.49
2022-08-19T14:03:20.233Z,24.41
2022-08-19T14:05:47.055Z,24.09
2022-08-19T14:08:13.879Z,24.13
2022-08-19T14:10:40.700Z,24.04
2022-08-19T14:13:07.407Z,24.13
2022-08-19T14:15:33.958Z,24.08
2022-08-19T14:18:00.599Z,24.02
2022-08-19T14:20:27.672Z,24.11
2022-08-19T14:22:55.006Z,24.16
2022-08-19T14:25:24.516Z,23.87
2022-08-19T14:27:51.008Z,24.03
2022-08-19T14:30:22.316Z,24.12
2022-08-19T14:32:48.821Z,24.38
2022-08-19T14:35:16.858Z,24.74
2022-08-19T14:37:45.674Z,24.97
2022-08-19T14:40:15.080Z,24.93
2022-08-19T14:42:42.169Z,25.20
2022-08-19T14:45:10.015Z,25.15
2022-08-19T14:47:40.005Z,25.13
2022-08-19T14:50:10.571Z,25.21
2022-08-19T14:52:48.197Z,24.81
2022-08-19T14:55:16.335Z,24.75
2022-08-19T14:57:43.903Z,24.88
2022-08-19T15:00:11.943Z,24.59
2022-08-19T15:02:38.478Z,24.58
2022-08-19T15:05:05.427Z,24.35
2022-08-19T15:07:32.022Z,24.11
2022-08-19T15:09:58.631Z,23.97
2022-08-19T15:12:25.376Z,23.70
2022-08-19T15:14:52.981Z,23.64
2022-08-19T15:17:43.369Z,23.42
2022-08-19T15:20:14.051Z,23.25
2022-08-19T15:22:40.668Z,22.85
2022-08-19T15:25:08.860Z,22.34
2022-08-19T15:27:39.473Z,22.60
2022-08-19T15:30:07.701Z,22.54
2022-08-19T15:32:35.423Z,22.47
2022-08-19T15:35:01.960Z,22.40
2022-08-19T15:37:30.594Z,22.05
2022-08-19T15:39:58.738Z,21.83
2022-08-19T15:42:29.349Z,21.73
2022-08-19T15:45:00.382Z,21.68
2022-08-19T15:47:35.239Z,21.68
2022-08-19T15:50:15.559Z,21.46
2022-08-19T15:52:52.929Z,21.46
2022-08-19T15:55:33.412Z,21.50
2022-08-19T15:58:06.768Z,21.40
2022-08-19T16:00:34.320Z,21.04
2022-08-19T16:03:00.935Z,21.24
2022-08-19T16:05:27.542Z,21.45
2022-08-19T16:07:54.210Z,21.64
2022-08-19T16:10:26.027Z,21.92
2022-08-19T16:12:54.864Z,22.22
2022-08-19T16:15:22.202Z,21.89
2022-08-19T16:17:55.485Z,21.51
2022-08-19T16:20:25.537Z,21.47
2022-08-19T16:22:53.701Z,21.67
2022-08-19T16:25:20.891Z,21.53
2022-08-19T16:27:54.234Z,21.48
2022-08-19T16:30:34.756Z,21.08
2022-08-19T16:33:01.270Z,21.00
2022-08-19T16:35:27.760Z,21.12
2022-08-19T16:37:54.387Z,21.17
2022-08-19T16:40:21.073Z,21.00
2022-08-19T16:42:48.306Z,21.11
2022-08-19T16:45:14.978Z,20.97
2022-08-19T16:47:41.549Z,20.95
2022-08-19T16:50:08.906Z,20.89
2022-08-19T16:52:35.596Z,21.13
2022-08-19T16:55:02.329Z,21.17
2022-08-19T16:57:28.795Z,21.23
2022-08-19T16:59:57.403Z,21.33
2022-08-19T17:02:29.594Z,21.57
2022-08-19T17:05:01.598Z,21.49
2022-08-19T17:07:28.558Z,21.40
2022-08-19T17:09:55.946Z,21.58
2022-08-19T17:12:30.349Z,21.62
2022-08-19T17:14:58.578Z,21.76
2022-08-19T17:17:28.875Z,21.61
2022-08-19T17:19:56.029Z,21.59
2022-08-19T17:22:22.804Z,21.41
2022-08-19T17:24:49.309Z,21.60
2022-08-19T17:27:15.894Z,21.61
2022-08-19T17:29:46.753Z,21.49
2022-08-19T17:32:14.597Z,21.60
2022-08-19T17:34:41.084Z,21.70
2022-08-19T17:37:08.023Z,21.73
2022-08-19T17:39:39.002Z,21.54
2022-08-19T17:42:06.936Z,21.43
2022-08-19T17:44:35.174Z,21.26
2022-08-19T17:47:01.778Z,21.10
2022-08-19T17:49:28.730Z,21.19
2022-08-19T17:51:55.380Z,21.16
2022-08-19T17:54:22.282Z,21.06
2022-08-19T17:56:48.925Z,21.12
2022-08-19T17:59:16.179Z,21.15
2022-08-19T18:01:53.630Z,21.24
2022-08-19T18:04:23.877Z,21.36
2022-08-19T18:06:53.120Z,21.37
2022-08-19T18:09:30.107Z,21.43
2022-08-19T18:12:12.586Z,21.44
2022-08-19T18:14:40.279Z,21.34
2022-08-19T18:17:14.623Z,21.41
2022-08-19T18:19:43.594Z,21.33
2022-08-19T18:22:22.927Z,21.50
2022-08-19T18:24:49.754Z,21.46
2022-08-19T18:27:16.744Z,21.34
2022-08-19T18:29:43.624Z,21.08
2022-08-19T18:32:14.671Z,20.98
2022-08-19T18:34:42.296Z,20.92
2022-08-19T18:37:09.237Z,21.02
2022-08-19T18:39:36.219Z,21.04
2022-08-19T18:42:17.236Z,20.86
2022-08-19T18:44:45.140Z,20.75
2022-08-19T18:47:12.051Z,20.74
2022-08-19T18:49:38.634Z,20.72
2022-08-19T18:52:05.173Z,20.82
2022-08-19T18:54:32.462Z,20.67
2022-08-19T18:56:59.322Z,20.59
2022-08-19T18:59:27.518Z,20.72
2022-08-19T19:01:55.340Z,20.63
2022-08-19T19:04:27.142Z,20.65
2022-08-19T19:06:54.066Z,20.73
2022-08-19T19:09:22.799Z,20.81
2022-08-19T19:11:52.410Z,20.73
2022-08-19T19:14:48.235Z,20.75
2022-08-19T19:20:10.532Z,20.62
2022-08-19T19:22:40.595Z,20.54
2022-08-19T19:25:07.483Z,20.13
2022-08-19T19:27:34.164Z,20.03
2022-08-19T19:30:00.738Z,19.89
2022-08-19T19:32:29.092Z,19.87
2022-08-19T19:34:56.038Z,19.92
2022-08-19T19:37:24.534Z,19.81
2022-08-19T19:39:51.251Z,19.89
2022-08-19T19:42:21.254Z,19.81
2022-08-19T19:44:50.375Z,19.79
2022-08-19T19:47:17.517Z,19.64
2022-08-19T19:50:10.844Z,19.58
2022-08-19T19:52:32.240Z,19.48
2022-08-19T19:54:58.795Z,19.45
2022-08-19T19:57:28.402Z,19.51
2022-08-19T19:59:56.115Z,19.58
2022-08-19T20:02:22.647Z,19.54
2022-08-19T20:04:49.253Z,19.36
2022-08-19T20:07:15.856Z,19.22
2022-08-19T20:09:58.906Z,19.19
2022-08-19T20:12:26.438Z,19.18
2022-08-19T20:14:53.009Z,18.99
2022-08-19T20:17:19.589Z,19.01
2022-08-19T20:19:46.255Z,18.99
2022-08-19T20:22:13.671Z,18.96
2022-08-19T20:24:40.277Z,18.97
2022-08-19T20:27:06.812Z,18.76
2022-08-19T20:29:39.448Z,18.65
2022-08-19T20:32:07.672Z,18.67
2022-08-19T20:34:34.166Z,18.80
2022-08-19T20:37:00.673Z,19.02
2022-08-19T20:39:27.404Z,19.04
2022-08-19T20:41:54.016Z,19.07
2022-08-19T20:44:20.542Z,19.26
2022-08-19T20:46:54.616Z,19.15
2022-08-19T20:49:23.058Z,18.90
2022-08-19T20:51:53.988Z,18.88
2022-08-19T20:54:20.559Z,19.08
2022-08-19T20:56:47.054Z,18.97
2022-08-19T20:59:13.588Z,18.80
2022-08-19T21:01:40.103Z,18.97
2022-08-19T21:04:06.656Z,18.97
2022-08-19T21:06:33.132Z,18.77
2022-08-19T21:08:59.633Z,18.69
2022-08-19T21:11:26.186Z,18.65
2022-08-19T21:13:52.737Z,18.68
2022-08-19T21:16:19.366Z,18.52
2022-08-19T21:18:45.897Z,18.55
2022-08-19T21:21:12.514Z,18.57
2022-08-19T21:23:39.242Z,18.48
2022-08-19T21:26:06.279Z,18.55
2022-08-19T21:28:36.053Z,18.48
2022-08-19T21:31:07.625Z,18.49
2022-08-19T21:33:37.251Z,18.25
2022-08-19T21:36:06.950Z,18.18
2022-08-19T21:38:33.574Z,18.28
2022-08-19T21:43:42.220Z,18.21
2022-08-19T21:46:08.848Z,18.37
2022-08-19T21:48:35.924Z,18.25
2022-08-19T21:51:02.439Z,18.23
2022-08-19T21:53:34.213Z,18.29
2022-08-19T21:56:01.705Z,18.58
2022-08-19T21:58:30.690Z,18.49
2022-08-19T22:01:01.586Z,18.40
2022-08-19T22:03:28.943Z,18.51
2022-08-19T22:05:55.465Z,18.54
2022-08-19T22:08:21.971Z,18.54
2022-08-19T22:10:48.518Z,18.67
2022-08-19T22:13:15.034Z,18.79
2022-08-19T22:15:41.625Z,18.97
2022-08-19T22:18:08.133Z,18.86
2022-08-19T22:20:34.665Z,18.76
2022-08-19T22:23:04.247Z,18.76
2022-08-19T22:25:36.384Z,18.62
2022-08-19T22:28:07.909Z,18.62
2022-08-19T22:30:38.892Z,18.53
2022-08-19T22:33:12.179Z,18.46
2022-08-19T22:35:40.174Z,18.56
2022-08-19T22:38:08.065Z,18.47
2022-08-19T22:40:37.842Z,18.77
2022-08-19T22:43:07.615Z,18.90
2022-08-19T22:45:34.850Z,18.75
2022-08-19T22:48:01.873Z,18.77
2022-08-19T22:50:28.636Z,18.74
2022-08-19T22:52:58.230Z,18.81
2022-08-19T22:55:26.103Z,19.07
2022-08-19T22:57:53.714Z,19.17
2022-08-19T23:00:22.018Z,19.29
2022-08-19T23:02:51.935Z,19.37
2022-08-19T23:05:21.781Z,19.43
2022-08-19T23:07:52.310Z,19.39
2022-08-19T23:10:27.436Z,19.24
2022-08-19T23:12:56.840Z,19.31
2022-08-19T23:15:26.969Z,19.34
2022-08-19T23:17:55.585Z,19.53
2022-08-19T23:20:23.939Z,19.32
2022-08-19T23:22:50.439Z,19.32
2022-08-19T23:25:21.266Z,19.36
2022-08-19T23:27:50.803Z,19.45
2022-08-19T23:30:17.368Z,19.48
2022-08-19T23:32:43.946Z,19.36
2022-08-19T23:35:10.450Z,19.44
2022-08-19T23:37:37.005Z,19.41
2022-08-19T23:40:05.683Z,19.34
2022-08-19T23:42:32.362Z,19.22
2022-08-19T23:45:03.989Z,19.31
2022-08-19T23:47:30.525Z,19.24
2022-08-19T23:49:57.082Z,19.15
2022-08-19T23:52:23.720Z,19.08
2022-08-19T23:54:50.238Z,19.21
2022-08-19T23:57:16.764Z,19.33
2022-08-19T23:59:44.037Z,19.40
